Wharton, Ohio
Current Conditions -  °F | °C
As of 10:53 AM on Wednesday 22 Oct 2014 (Local Time) from KFDY Reporting Station
Overcast Overcast  
Wind Chill: 43°   Ceiling: 1600
Heat Index: 48°   Visibility: 10mi
Dew Point: 40°   Wind: 12mph
Humidity: 74%   Direction: 350°N
Pressure: 30.31"   Gusts: NA
Location:  40.86°N, 83.46°W
Report Text: KFDY 221453Z AUTO 35010KT 10SM OVC016 09/04 A3031 RMK AO2 SLP262 T00890044 51015
Loading
Personal Weather Stations






























Interactive Weather Map
Tropical Storm Tracking
New forecast layout! Learn more

10-Day Weather Forecast

Advertisements
Track Severe Weather on mobile